createdAt,value
2023-04-07T00:00:24.430Z,56.05
2023-04-07T00:02:52.009Z,56.07
2023-04-07T00:05:19.093Z,56.36
2023-04-07T00:07:55.973Z,56.51
2023-04-07T00:10:24.761Z,56.64
2023-04-07T00:12:51.719Z,56.85
2023-04-07T00:15:18.595Z,56.48
2023-04-07T00:17:46.405Z,56.62
2023-04-07T00:20:13.335Z,56.52
2023-04-07T00:22:40.067Z,56.70
2023-04-07T00:25:07.191Z,56.60
2023-04-07T00:27:34.000Z,56.62
2023-04-07T00:30:00.853Z,56.84
2023-04-07T00:32:27.699Z,56.62
2023-04-07T00:34:54.523Z,56.66
2023-04-07T00:37:21.395Z,56.79
2023-04-07T00:39:48.178Z,57.05
2023-04-07T00:42:14.890Z,57.02
2023-04-07T00:44:41.745Z,56.96
2023-04-07T00:47:08.629Z,57.06
2023-04-07T00:49:35.446Z,56.92
2023-04-07T00:52:02.325Z,57.02
2023-04-07T00:54:30.578Z,57.03
2023-04-07T00:56:58.442Z,56.98
2023-04-07T00:59:25.479Z,57.04
2023-04-07T01:01:52.577Z,57.03
2023-04-07T01:04:19.580Z,57.00
2023-04-07T01:06:47.839Z,56.95
2023-04-07T01:09:17.168Z,57.27
2023-04-07T01:11:53.574Z,57.51
2023-04-07T01:14:21.400Z,57.52
2023-04-07T01:16:56.631Z,57.24
2023-04-07T01:19:37.151Z,57.33
2023-04-07T01:22:08.674Z,57.77
2023-04-07T01:24:57.597Z,57.58
2023-04-07T01:27:27.832Z,57.93
2023-04-07T01:29:54.649Z,57.95
2023-04-07T01:32:21.479Z,57.73
2023-04-07T01:34:49.462Z,58.03
2023-04-07T01:37:16.702Z,58.07
2023-04-07T01:39:43.504Z,58.35
2023-04-07T01:42:10.263Z,58.32
2023-04-07T01:44:37.122Z,58.32
2023-04-07T01:47:04.249Z,58.30
2023-04-07T01:49:31.937Z,58.02
2023-04-07T01:51:58.671Z,58.40
2023-04-07T01:54:25.464Z,58.43
2023-04-07T01:56:53.083Z,58.11
2023-04-07T01:59:20.025Z,58.26
2023-04-07T02:01:47.411Z,58.51
2023-04-07T02:04:22.537Z,58.94
2023-04-07T02:06:51.602Z,58.59
2023-04-07T02:09:22.012Z,58.65
2023-04-07T02:11:48.918Z,58.60
2023-04-07T02:14:17.958Z,58.85
2023-04-07T02:16:59.105Z,59.09
2023-04-07T02:19:27.626Z,59.23
2023-04-07T02:21:54.381Z,59.42
2023-04-07T02:24:22.218Z,59.70
2023-04-07T02:26:49.193Z,59.61
2023-04-07T02:29:16.177Z,59.27
2023-04-07T02:31:43.720Z,59.25
2023-04-07T02:34:10.715Z,59.29
2023-04-07T02:36:39.211Z,59.19
2023-04-07T02:39:07.014Z,59.39
2023-04-07T02:41:33.844Z,59.26
2023-04-07T02:44:00.864Z,59.19
2023-04-07T02:46:27.756Z,59.74
2023-04-07T02:48:54.640Z,59.88
2023-04-07T02:51:21.446Z,59.75
2023-04-07T02:53:48.247Z,59.75
2023-04-07T02:56:15.812Z,59.88
2023-04-07T02:58:42.824Z,59.88
2023-04-07T03:01:11.376Z,60.09
2023-04-07T03:03:39.723Z,60.07
2023-04-07T03:06:14.606Z,59.92
2023-04-07T03:08:55.385Z,59.80
2023-04-07T03:11:22.132Z,59.77
2023-04-07T03:13:49.009Z,59.37
2023-04-07T03:16:15.921Z,59.67
2023-04-07T03:18:55.866Z,59.71
2023-04-07T03:21:23.379Z,59.84
2023-04-07T03:23:50.314Z,59.96
2023-04-07T03:26:18.203Z,60.37
2023-04-07T03:28:45.151Z,60.39
2023-04-07T03:31:13.019Z,60.25
2023-04-07T03:33:39.877Z,60.08
2023-04-07T03:36:07.009Z,59.98
2023-04-07T03:38:34.191Z,59.89
2023-04-07T03:41:03.621Z,59.97
2023-04-07T03:43:30.940Z,59.85
2023-04-07T03:45:57.786Z,59.83
2023-04-07T03:48:26.509Z,59.80
2023-04-07T03:51:03.050Z,60.07
2023-04-07T03:53:32.441Z,59.70
2023-04-07T03:56:03.214Z,60.15
2023-04-07T03:58:44.538Z,59.73
2023-04-07T04:01:17.195Z,59.88
2023-04-07T04:03:47.028Z,60.03
2023-04-07T04:06:43.224Z,59.81
2023-04-07T04:09:36.484Z,60.26
2023-04-07T04:12:04.498Z,60.23
2023-04-07T04:14:32.887Z,60.46
2023-04-07T04:17:01.745Z,60.68
2023-04-07T04:19:37.571Z,60.90
2023-04-07T04:22:12.947Z,61.30
2023-04-07T04:24:48.697Z,61.23
2023-04-07T04:27:15.780Z,61.25
2023-04-07T04:29:45.310Z,61.39
2023-04-07T04:32:14.293Z,61.73
2023-04-07T04:34:43.506Z,61.62
2023-04-07T04:37:11.947Z,61.74
2023-04-07T04:39:42.005Z,61.80
2023-04-07T04:42:11.847Z,62.03
2023-04-07T04:44:39.354Z,62.39
2023-04-07T04:47:07.168Z,62.70
2023-04-07T04:49:34.293Z,62.85
2023-04-07T04:52:03.869Z,62.72
2023-04-07T04:54:37.108Z,62.86
2023-04-07T04:57:04.122Z,62.48
2023-04-07T04:59:31.317Z,62.41
2023-04-07T05:02:01.919Z,62.40
2023-04-07T05:04:29.049Z,62.72
2023-04-07T05:07:07.470Z,62.50
2023-04-07T05:09:34.326Z,62.75
2023-04-07T05:12:02.780Z,62.75
2023-04-07T05:14:33.994Z,62.86
2023-04-07T05:17:05.571Z,62.93
2023-04-07T05:19:33.232Z,63.18
2023-04-07T05:22:05.740Z,63.29
2023-04-07T05:24:40.956Z,63.24
2023-04-07T05:27:07.897Z,63.51
2023-04-07T05:29:35.159Z,63.66
2023-04-07T05:32:02.758Z,63.83
2023-04-07T05:34:31.592Z,64.18
2023-04-07T05:36:58.451Z,64.04
2023-04-07T05:39:26.207Z,64.16
2023-04-07T05:41:56.876Z,64.48
2023-04-07T05:44:26.565Z,64.54
2023-04-07T05:46:54.614Z,64.67
2023-04-07T05:49:23.707Z,64.52
2023-04-07T05:51:59.899Z,64.35
2023-04-07T05:54:26.733Z,64.55
2023-04-07T05:56:53.534Z,64.92
2023-04-07T05:59:21.987Z,65.00
2023-04-07T06:01:50.403Z,64.98
2023-04-07T06:04:17.219Z,65.28
2023-04-07T06:06:45.626Z,65.33
2023-04-07T06:09:12.425Z,65.12
2023-04-07T06:11:39.198Z,64.94
2023-04-07T06:14:05.996Z,65.33
2023-04-07T06:16:32.811Z,65.45
2023-04-07T06:18:59.575Z,65.32
2023-04-07T06:21:28.993Z,65.51
2023-04-07T06:23:56.115Z,65.66
2023-04-07T06:26:23.783Z,65.91
2023-04-07T06:28:50.818Z,65.84
2023-04-07T06:31:18.212Z,65.88
2023-04-07T06:33:45.581Z,66.11
2023-04-07T06:51:46.423Z,65.44
2023-04-07T06:54:14.488Z,65.38
2023-04-07T06:56:41.808Z,65.27
2023-04-07T06:59:08.698Z,65.08
2023-04-07T07:01:35.720Z,64.84
2023-04-07T07:04:02.573Z,64.87
2023-04-07T07:06:29.579Z,64.84
2023-04-07T07:08:56.422Z,64.82
2023-04-07T07:11:23.163Z,64.96
2023-04-07T07:13:50.243Z,64.76
2023-04-07T07:16:17.362Z,64.74
2023-04-07T07:18:44.703Z,64.23
2023-04-07T07:21:11.709Z,64.44
2023-04-07T07:23:38.533Z,64.25
2023-04-07T07:26:05.300Z,64.16
2023-04-07T07:28:32.092Z,64.09
2023-04-07T07:30:58.909Z,63.96
2023-04-07T07:33:25.902Z,63.85
2023-04-07T07:35:53.412Z,63.47
2023-04-07T07:38:20.663Z,63.62
2023-04-07T07:40:47.754Z,63.17
2023-04-07T07:43:15.143Z,63.24
2023-04-07T07:45:42.436Z,63.27
2023-04-07T07:48:09.739Z,62.88
2023-04-07T07:50:36.809Z,62.95
2023-04-07T07:53:04.314Z,62.79
2023-04-07T07:55:31.479Z,62.26
2023-04-07T07:57:58.284Z,62.22
2023-04-07T08:00:28.993Z,61.84
2023-04-07T08:02:56.504Z,61.74
2023-04-07T08:05:23.553Z,61.54
2023-04-07T08:07:50.877Z,61.13
2023-04-07T08:10:20.471Z,61.25
2023-04-07T08:12:47.700Z,60.78
2023-04-07T08:15:14.527Z,60.72
2023-04-07T08:17:41.737Z,60.33
2023-04-07T08:20:09.748Z,60.54
2023-04-07T08:22:36.703Z,60.60
2023-04-07T08:25:03.806Z,60.13
2023-04-07T08:27:30.822Z,59.79
2023-04-07T08:30:01.340Z,59.98
2023-04-07T08:32:38.117Z,59.78
2023-04-07T08:35:05.191Z,59.55
2023-04-07T08:37:32.315Z,59.14
2023-04-07T08:39:59.111Z,59.08
2023-04-07T08:42:28.168Z,59.11
2023-04-07T08:44:56.279Z,58.73
2023-04-07T08:47:24.068Z,58.91
2023-04-07T08:49:51.076Z,58.76
2023-04-07T08:52:23.162Z,58.64
2023-04-07T08:54:50.277Z,59.01
2023-04-07T08:57:18.566Z,58.85
2023-04-07T08:59:49.253Z,59.04
2023-04-07T09:02:16.191Z,59.12
2023-04-07T09:04:47.307Z,58.79
2023-04-07T09:07:17.892Z,58.94
2023-04-07T09:10:07.955Z,59.37
2023-04-07T09:12:47.835Z,59.50
2023-04-07T09:15:14.657Z,59.12
2023-04-07T09:17:41.513Z,59.38
2023-04-07T09:20:08.861Z,59.53
2023-04-07T09:22:37.140Z,59.16
2023-04-07T09:25:14.178Z,59.57
2023-04-07T09:27:41.286Z,59.38
2023-04-07T09:30:17.709Z,59.71
2023-04-07T09:32:44.893Z,59.62
2023-04-07T09:35:11.899Z,59.79
2023-04-07T09:37:38.810Z,60.12
2023-04-07T09:40:06.010Z,60.38
2023-04-07T09:42:37.179Z,60.56
2023-04-07T09:45:04.391Z,60.94
2023-04-07T09:47:31.781Z,61.24
2023-04-07T09:49:59.719Z,61.59
2023-04-07T09:52:47.489Z,62.40
2023-04-07T09:55:14.350Z,62.85
2023-04-07T09:57:41.839Z,63.59
2023-04-07T10:00:23.874Z,64.15
2023-04-07T10:02:51.673Z,64.67
2023-04-07T10:05:21.419Z,65.48
2023-04-07T10:07:48.767Z,65.87
2023-04-07T10:10:15.843Z,66.38
2023-04-07T10:12:42.718Z,66.97
2023-04-07T10:15:10.520Z,67.77
2023-04-07T10:17:37.718Z,68.68
2023-04-07T10:20:05.177Z,69.02
2023-04-07T10:22:32.111Z,69.85
2023-04-07T10:25:06.976Z,70.34
2023-04-07T10:27:50.604Z,70.55
2023-04-07T10:30:19.100Z,71.25
2023-04-07T10:32:46.709Z,71.22
2023-04-07T10:35:13.783Z,71.80
2023-04-07T10:37:40.784Z,71.94
2023-04-07T10:40:20.010Z,72.02
2023-04-07T10:42:48.066Z,72.58
2023-04-07T10:45:14.941Z,72.95
2023-04-07T10:47:57.536Z,73.46
2023-04-07T10:50:24.708Z,73.46
2023-04-07T10:53:08.833Z,73.57
2023-04-07T10:55:36.573Z,74.15
2023-04-07T10:58:22.902Z,74.28
2023-04-07T11:01:08.610Z,74.54
2023-04-07T11:03:35.513Z,74.54
2023-04-07T11:06:06.427Z,74.95
2023-04-07T11:08:33.605Z,75.08
2023-04-07T11:11:00.758Z,75.54
2023-04-07T11:13:27.761Z,75.63
2023-04-07T11:15:54.906Z,75.59
2023-04-07T11:18:22.246Z,75.83
2023-04-07T11:20:51.014Z,76.07
2023-04-07T11:23:18.670Z,76.44
2023-04-07T11:25:46.768Z,76.60
2023-04-07T11:28:14.169Z,76.55
2023-04-07T11:30:52.384Z,76.64
2023-04-07T11:33:20.048Z,76.65
2023-04-07T11:36:00.717Z,77.05
2023-04-07T11:38:35.744Z,76.85
2023-04-07T11:41:10.941Z,77.24
2023-04-07T11:43:38.179Z,77.46
2023-04-07T11:46:09.672Z,77.15
2023-04-07T11:48:37.626Z,77.60
2023-04-07T11:51:04.736Z,77.53
2023-04-07T11:53:33.143Z,77.37
2023-04-07T11:56:01.288Z,77.66
2023-04-07T11:58:28.960Z,77.62
2023-04-07T12:00:57.518Z,77.73
2023-04-07T12:03:25.013Z,77.98
2023-04-07T12:05:52.614Z,77.92
2023-04-07T12:08:20.399Z,78.05
2023-04-07T12:10:48.299Z,77.97
2023-04-07T12:13:16.020Z,78.39
2023-04-07T12:15:58.649Z,78.02
2023-04-07T12:18:31.851Z,78.39
2023-04-07T12:21:00.265Z,78.50
2023-04-07T12:23:27.688Z,78.62
2023-04-07T12:25:55.374Z,78.52
2023-04-07T12:28:23.402Z,78.59
2023-04-07T12:30:50.741Z,78.48
2023-04-07T12:33:20.280Z,78.65
2023-04-07T12:35:47.976Z,78.88
2023-04-07T12:38:16.104Z,78.97
2023-04-07T12:40:49.411Z,78.72
2023-04-07T12:43:17.381Z,79.11
2023-04-07T12:45:45.542Z,79.12
2023-04-07T12:48:13.882Z,78.95
2023-04-07T12:50:46.995Z,79.39
2023-04-07T12:53:18.705Z,79.13
2023-04-07T12:55:54.493Z,79.19
2023-04-07T12:58:22.550Z,79.17
2023-04-07T13:00:52.365Z,79.02
2023-04-07T13:03:20.401Z,79.41
2023-04-07T13:05:49.150Z,79.06
2023-04-07T13:08:20.306Z,79.27
2023-04-07T13:10:48.347Z,79.41
2023-04-07T13:13:16.783Z,79.44
2023-04-07T13:15:45.262Z,79.32
2023-04-07T13:21:26.472Z,79.62
2023-04-07T13:23:52.217Z,79.48
2023-04-07T13:26:19.833Z,79.60
2023-04-07T13:28:48.387Z,79.52
2023-04-07T13:31:16.702Z,79.78
2023-04-07T13:33:44.832Z,79.61
2023-04-07T13:36:12.437Z,79.81
2023-04-07T13:38:40.280Z,79.80
2023-04-07T13:41:07.643Z,79.50
2023-04-07T13:43:34.656Z,79.70
2023-04-07T13:46:07.781Z,79.83
2023-04-07T13:48:44.594Z,79.83
2023-04-07T13:51:13.025Z,79.91
2023-04-07T13:53:40.872Z,79.89
2023-04-07T13:56:09.145Z,79.75
2023-04-07T13:58:36.943Z,79.86
2023-04-07T14:01:04.201Z,79.86
2023-04-07T14:03:32.205Z,80.15
2023-04-07T14:06:01.560Z,80.26
2023-04-07T14:08:28.690Z,80.25
2023-04-07T14:10:55.794Z,80.10
2023-04-07T14:13:23.480Z,80.41
2023-04-07T14:15:50.472Z,80.07
2023-04-07T14:18:21.066Z,80.13
2023-04-07T14:20:48.459Z,80.11
2023-04-07T14:23:33.802Z,80.14
2023-04-07T14:26:04.575Z,80.36
2023-04-07T14:28:32.065Z,80.19
2023-04-07T14:30:59.824Z,80.66
2023-04-07T14:33:27.250Z,80.56
2023-04-07T14:35:54.699Z,80.57
2023-04-07T14:38:24.598Z,80.49
2023-04-07T14:40:54.539Z,80.46
2023-04-07T14:43:21.519Z,80.76
2023-04-07T14:45:54.444Z,80.67
2023-04-07T14:48:21.443Z,80.35
2023-04-07T14:50:51.782Z,80.25
2023-04-07T14:53:23.853Z,80.19
2023-04-07T14:55:50.769Z,80.42
2023-04-07T14:58:17.914Z,80.41
2023-04-07T15:00:44.859Z,80.71
2023-04-07T15:03:14.733Z,80.77
2023-04-07T15:05:42.137Z,80.66
2023-04-07T15:08:09.326Z,80.34
2023-04-07T15:10:38.124Z,80.51
2023-04-07T15:13:05.142Z,80.53
2023-04-07T15:15:32.050Z,80.56
2023-04-07T15:17:59.851Z,80.48
2023-04-07T15:20:27.237Z,80.67
2023-04-07T15:22:54.189Z,80.79
2023-04-07T15:25:22.961Z,80.71
2023-04-07T15:27:49.854Z,80.71
2023-04-07T15:30:16.895Z,81.13
2023-04-07T15:32:58.590Z,81.24
2023-04-07T15:35:26.191Z,81.16
2023-04-07T15:37:55.917Z,81.13
2023-04-07T15:40:24.751Z,81.20
2023-04-07T15:42:51.935Z,81.30
2023-04-07T15:45:19.657Z,81.41
2023-04-07T16:05:52.180Z,79.67
2023-04-07T16:08:19.452Z,80.19
2023-04-07T16:10:46.512Z,80.55
2023-04-07T16:13:14.688Z,80.33
2023-04-07T16:15:42.102Z,80.81
2023-04-07T16:18:10.556Z,81.05
2023-04-07T16:20:44.481Z,80.93
2023-04-07T16:23:12.668Z,81.10
2023-04-07T16:25:39.808Z,81.35
2023-04-07T16:28:07.521Z,81.72
2023-04-07T16:30:36.644Z,81.82
2023-04-07T16:33:07.110Z,81.67
2023-04-07T16:35:34.880Z,82.08
2023-04-07T16:38:08.019Z,82.27
2023-04-07T16:40:36.055Z,82.04
2023-04-07T16:43:07.111Z,82.23
2023-04-07T16:45:35.347Z,82.49
2023-04-07T16:48:03.813Z,82.37
2023-04-07T16:50:34.330Z,82.83
2023-04-07T16:53:06.144Z,82.86
2023-04-07T16:55:38.471Z,83.05
2023-04-07T16:58:11.394Z,83.04
2023-04-07T17:00:39.091Z,83.35
2023-04-07T17:03:15.856Z,83.46
2023-04-07T17:10:04.377Z,83.47
2023-04-07T17:12:41.047Z,83.51
2023-04-07T17:15:08.972Z,83.55
2023-04-07T17:17:37.870Z,83.87
2023-04-07T17:20:05.935Z,83.70
2023-04-07T17:22:34.914Z,83.89
2023-04-07T17:25:02.194Z,84.12
2023-04-07T17:27:33.426Z,84.11
2023-04-07T17:30:01.313Z,84.25
2023-04-07T17:32:34.027Z,84.42
2023-04-07T17:35:01.557Z,84.41
2023-04-07T17:37:32.283Z,84.17
2023-04-07T17:40:01.599Z,84.58
2023-04-07T17:42:33.335Z,84.66
2023-04-07T17:45:02.248Z,84.85
2023-04-07T17:47:30.087Z,84.90
2023-04-07T17:49:58.639Z,84.89
2023-04-07T17:52:34.248Z,85.03
2023-04-07T17:55:03.607Z,84.92
2023-04-07T17:57:40.500Z,84.84
2023-04-07T18:00:14.676Z,85.17
2023-04-07T18:02:42.805Z,85.33
2023-04-07T18:08:17.259Z,85.29
2023-04-07T18:10:49.208Z,85.47
2023-04-07T18:13:18.013Z,85.32
2023-04-07T18:15:49.949Z,85.41
2023-04-07T18:18:19.238Z,85.37
2023-04-07T18:20:46.939Z,85.54
2023-04-07T18:23:14.865Z,85.46
2023-04-07T18:25:41.892Z,85.85
2023-04-07T18:28:08.929Z,85.75
2023-04-07T18:30:36.545Z,85.92
2023-04-07T18:33:04.842Z,85.63
2023-04-07T18:35:33.237Z,85.97
2023-04-07T18:38:01.400Z,85.90
2023-04-07T18:40:33.478Z,85.96
2023-04-07T18:43:01.833Z,86.12
2023-04-07T18:45:29.718Z,86.29
2023-04-07T18:47:57.924Z,86.57
2023-04-07T18:50:28.446Z,86.43
2023-04-07T18:52:56.408Z,86.54
2023-04-07T18:55:24.450Z,86.45
2023-04-07T18:57:58.147Z,86.63
2023-04-07T19:00:47.441Z,86.78
2023-04-07T19:03:34.690Z,86.87
2023-04-07T19:06:07.456Z,86.96
2023-04-07T19:08:39.616Z,86.98
2023-04-07T19:11:20.182Z,87.22
2023-04-07T19:14:37.666Z,86.98
2023-04-07T19:17:20.209Z,86.85
2023-04-07T19:20:05.790Z,87.08
2023-04-07T19:22:34.017Z,86.95
2023-04-07T19:25:01.842Z,87.27
2023-04-07T19:27:33.585Z,86.99
2023-04-07T19:30:05.276Z,87.22
2023-04-07T19:32:38.903Z,87.40
2023-04-07T19:35:10.584Z,87.31
2023-04-07T19:37:48.311Z,87.58
2023-04-07T19:40:33.170Z,87.16
2023-04-07T19:43:56.931Z,87.44
2023-04-07T19:45:57.296Z,87.26
2023-04-07T19:48:59.928Z,87.59
2023-04-07T19:51:31.161Z,87.47
2023-04-07T19:53:58.575Z,87.72
2023-04-07T19:56:25.679Z,87.32
2023-04-07T19:58:52.676Z,87.67
2023-04-07T20:01:20.133Z,87.85
2023-04-07T20:03:47.086Z,87.49
2023-04-07T20:06:15.441Z,87.67
2023-04-07T20:08:42.735Z,87.70
2023-04-07T20:15:09.903Z,87.59
2023-04-07T20:18:22.882Z,87.61
2023-04-07T20:21:24.739Z,87.49
2023-04-07T20:25:24.406Z,87.68
2023-04-07T20:29:03.466Z,87.58
2023-04-07T20:32:11.103Z,87.64
2023-04-07T20:38:30.907Z,87.65
2023-04-07T21:19:03.905Z,88.63
2023-04-07T21:21:31.981Z,88.38
2023-04-07T21:23:58.924Z,88.24
2023-04-07T21:26:26.810Z,88.70
2023-04-07T21:28:54.479Z,88.71
2023-04-07T21:31:23.830Z,88.57
2023-04-07T21:33:51.679Z,88.62
2023-04-07T21:36:21.662Z,88.64
2023-04-07T21:38:48.781Z,88.63
2023-04-07T21:41:16.040Z,89.00
2023-04-07T21:43:43.030Z,88.97
2023-04-07T21:46:10.061Z,88.98
2023-04-07T21:48:37.203Z,88.77
2023-04-07T21:51:04.429Z,89.22
2023-04-07T21:53:32.277Z,89.02
2023-04-07T21:55:59.266Z,88.95
2023-04-07T21:58:26.324Z,89.07
2023-04-07T22:00:54.006Z,89.01
2023-04-07T22:03:22.412Z,89.26
2023-04-07T22:05:51.933Z,89.09
2023-04-07T22:08:29.264Z,89.11
2023-04-07T22:10:58.953Z,89.19
2023-04-07T22:13:27.402Z,89.26
2023-04-07T22:15:54.545Z,89.33
2023-04-07T22:18:22.269Z,89.28
2023-04-07T22:20:49.380Z,89.31
2023-04-07T22:23:16.382Z,89.45
2023-04-07T22:25:43.287Z,89.49
2023-04-07T22:28:10.299Z,89.59
2023-04-07T22:30:37.505Z,89.37
2023-04-07T22:33:05.366Z,89.60
2023-04-07T22:35:32.537Z,89.73
2023-04-07T22:38:00.542Z,89.62
2023-04-07T22:40:27.473Z,89.46
2023-04-07T22:42:54.403Z,89.51
2023-04-07T22:45:21.337Z,89.59
2023-04-07T22:47:48.251Z,89.66
2023-04-07T22:50:15.173Z,89.73
2023-04-07T22:52:42.154Z,89.73
2023-04-07T22:55:09.537Z,89.69
2023-04-07T22:57:36.562Z,89.71
2023-04-07T23:00:04.579Z,89.96
2023-04-07T23:02:31.950Z,90.00
2023-04-07T23:04:58.854Z,90.00
2023-04-07T23:07:25.724Z,89.79
2023-04-07T23:09:52.656Z,90.19
2023-04-07T23:12:19.484Z,90.22
2023-04-07T23:14:46.422Z,90.08
2023-04-07T23:17:13.456Z,90.00
2023-04-07T23:19:40.578Z,90.27
2023-04-07T23:22:07.518Z,90.23
2023-04-07T23:24:34.470Z,90.24
2023-04-07T23:27:02.181Z,90.19
2023-04-07T23:29:29.175Z,90.22
2023-04-07T23:31:56.355Z,90.32
2023-04-07T23:34:23.254Z,90.16
2023-04-07T23:36:50.365Z,90.09
2023-04-07T23:39:17.276Z,90.30
2023-04-07T23:41:44.311Z,90.36
2023-04-07T23:44:11.289Z,90.41
2023-04-07T23:46:38.237Z,90.40
2023-04-07T23:49:05.324Z,90.35
2023-04-07T23:51:32.226Z,90.40
2023-04-07T23:53:59.173Z,90.42
2023-04-07T23:56:26.118Z,90.21
2023-04-07T23:58:53.044Z,90.62
